Time;durP1;ratioP1;P1;durP2;ratioP2;P2;SDS_P1;SDS_P2;PMS_P1;PMS_P2;Temp;Humidity;BMP_temperature;BMP_pressure;BME280_temperature;BME280_humidity;BME280_pressure;Samples;Min_cycle;Max_cycle;Signal;HPM_P1;HPM_P2
2024/02/28 00:00:14;;;;;;;8.45;6.18;;;9.70;99.90;;;10.07;73.69;101847.84;4972600;28;20046;-69
2024/02/28 00:02:42;;;;;;;9.15;6.20;;;9.70;99.90;;;10.08;73.68;101863.75;4972432;28;20047;-68
2024/02/28 00:05:11;;;;;;;7.28;5.93;;;9.70;99.90;;;10.10;73.83;101848.81;4955310;28;20053;-67
2024/02/28 00:07:40;;;;;;;10.32;6.00;;;9.70;99.90;;;9.98;74.07;101830.13;4972520;28;20055;-67
2024/02/28 00:10:09;;;;;;;10.50;6.05;;;9.70;99.90;;;10.08;74.10;101842.59;4972405;28;20070;-66
2024/02/28 00:12:38;;;;;;;8.18;6.43;;;9.70;99.90;;;10.04;74.19;101836.34;4972349;28;20436;-67
2024/02/28 00:15:10;;;;;;;9.68;6.03;;;9.70;99.90;;;10.03;74.23;101831.94;4972265;28;20046;-67
2024/02/28 00:17:41;;;;;;;8.18;6.28;;;9.70;99.90;;;9.90;74.49;101810.63;4972620;28;20141;-68
2024/02/28 00:20:11;;;;;;;8.32;6.00;;;9.70;99.90;;;10.00;74.27;101837.22;4972404;28;20047;-67
2024/02/28 00:22:40;;;;;;;8.43;6.43;;;9.70;99.90;;;9.98;74.67;101828.38;4955308;28;20050;-67
2024/02/28 00:25:11;;;;;;;9.10;6.28;;;9.70;99.90;;;9.84;74.34;101810.53;4972827;28;20046;-67
2024/02/28 00:27:39;;;;;;;10.88;6.38;;;9.60;99.90;;;10.00;74.53;101837.22;4972401;28;20489;-67
2024/02/28 00:30:09;;;;;;;9.63;6.68;;;9.60;99.90;;;9.98;74.34;101832.75;4972292;28;20101;-67
2024/02/28 00:32:37;;;;;;;12.00;6.93;;;9.60;99.90;;;9.94;74.59;101836.22;4975835;28;20802;-67
2024/02/28 00:35:08;;;;;;;9.43;6.60;;;9.60;99.90;;;9.93;74.71;101829.16;4959000;28;20294;-67
2024/02/28 00:37:37;;;;;;;9.18;6.82;;;9.60;99.90;;;9.87;74.92;101824.69;4976193;28;20051;-67
2024/02/28 00:40:07;;;;;;;7.70;6.15;;;9.60;99.90;;;9.84;75.10;101829.94;4976144;28;20078;-67
2024/02/28 00:42:35;;;;;;;10.50;7.47;;;9.50;99.90;;;9.83;74.81;101840.47;4959197;28;20488;-67
2024/02/28 00:45:05;;;;;;;9.85;6.82;;;9.50;99.90;;;9.77;75.21;101830.72;4976654;28;20101;-67
2024/02/28 00:47:33;;;;;;;9.38;6.60;;;9.40;99.90;;;9.71;74.97;101835.91;4976292;28;20385;-67
2024/02/28 00:50:02;;;;;;;11.65;6.50;;;9.40;99.90;;;9.69;75.09;101847.31;4976596;28;20373;-67
2024/02/28 00:52:35;;;;;;;11.68;6.70;;;9.30;99.90;;;9.70;75.02;101846.44;4975840;28;20122;-67
2024/02/28 00:55:05;;;;;;;11.07;7.10;;;9.40;99.90;;;9.65;75.45;101878.09;4975865;28;20050;-67
2024/02/28 00:57:34;;;;;;;12.57;7.55;;;9.30;99.90;;;9.62;75.42;101856.88;4975871;28;20389;-67
2024/02/28 01:00:05;;;;;;;11.00;7.40;;;9.30;99.90;;;9.57;75.93;101853.31;4975978;28;20444;-67
2024/02/28 01:02:33;;;;;;;11.77;7.40;;;9.20;99.90;;;9.54;75.86;101850.59;4975894;28;20050;-67
2024/02/28 01:05:02;;;;;;;9.38;7.20;;;9.20;99.90;;;9.51;76.05;101845.28;4975801;28;20105;-67
2024/02/28 01:07:32;;;;;;;11.27;7.45;;;9.20;99.90;;;9.52;76.28;101848.81;4975705;28;20055;-67
2024/02/28 01:10:00;;;;;;;11.85;7.63;;;9.20;99.90;;;9.52;76.45;101844.44;4976313;28;20047;-67
2024/02/28 01:12:29;;;;;;;10.52;8.05;;;9.20;99.90;;;9.54;76.63;101842.69;4975645;28;20053;-67
2024/02/28 01:14:57;;;;;;;10.57;7.05;;;9.20;99.90;;;9.56;76.29;101840.09;4975581;28;20130;-67
2024/02/28 01:17:26;;;;;;;9.10;7.15;;;9.20;99.90;;;9.55;76.38;101836.53;4976020;28;20055;-67
2024/02/28 01:19:54;;;;;;;12.60;7.25;;;9.20;99.90;;;9.51;76.95;101837.34;4975860;28;20141;-67
2024/02/28 01:22:23;;;;;;;8.50;7.40;;;9.20;99.90;;;9.51;76.94;101840.00;4976039;28;20055;-67
2024/02/28 01:24:54;;;;;;;13.60;8.00;;;9.20;99.90;;;9.48;77.13;101836.44;4975647;28;20070;-67
2024/02/28 01:27:23;;;;;;;11.95;7.85;;;9.20;99.90;;;9.49;77.41;101832.91;4975542;28;20047;-69
2024/02/28 01:29:53;;;;;;;18.17;7.68;;;9.10;99.90;;;9.52;77.19;101831.22;4975609;28;20046;-67
2024/02/28 01:32:21;;;;;;;17.85;8.02;;;9.20;99.90;;;9.49;77.70;101822.34;4975725;28;20057;-67
2024/02/28 01:34:50;;;;;;;10.48;7.50;;;9.10;99.90;;;9.48;77.91;101828.50;4958660;28;20553;-67
2024/02/28 01:37:18;;;;;;;17.73;8.27;;;9.10;99.90;;;9.47;77.85;101826.72;4958055;28;20124;-67
2024/02/28 01:39:47;;;;;;;15.25;7.88;;;9.10;99.90;;;9.41;77.51;101826.63;4975169;28;20046;-67
2024/02/28 01:42:17;;;;;;;14.63;8.90;;;9.10;99.90;;;9.40;78.04;101836.31;4975351;28;20046;-67
2024/02/28 01:44:48;;;;;;;11.77;8.80;;;9.10;99.90;;;9.33;78.22;101831.78;4975121;28;20047;-67
2024/02/28 01:47:17;;;;;;;11.10;8.45;;;9.00;99.90;;;9.34;78.69;101837.94;4976208;28;20344;-67
2024/02/28 01:49:47;;;;;;;11.73;7.95;;;9.00;99.90;;;9.35;78.90;101837.09;4976973;28;20133;-67
2024/02/28 01:52:16;;;;;;;11.90;8.10;;;9.00;99.90;;;9.39;79.13;101838.94;4976920;28;20078;-67
2024/02/28 01:54:45;;;;;;;16.98;9.38;;;9.10;99.90;;;9.40;78.97;101832.78;4977136;28;20043;-67
2024/02/28 01:57:16;;;;;;;14.45;9.60;;;9.10;99.90;;;9.42;78.94;101831.94;4977163;28;20122;-67
2024/02/28 01:59:45;;;;;;;12.23;8.98;;;9.10;99.90;;;9.44;79.53;101839.88;4959274;28;20489;-67
2024/02/28 02:02:13;;;;;;;13.38;9.27;;;9.10;99.90;;;9.46;79.20;101828.50;4976208;28;20412;-67
2024/02/28 02:04:42;;;;;;;12.63;9.25;;;9.10;99.90;;;9.48;79.59;101826.75;4975933;28;20065;-67
2024/02/28 02:07:10;;;;;;;18.10;9.50;;;9.10;99.90;;;9.50;79.47;101832.97;4975244;28;20481;-67
2024/02/28 02:09:39;;;;;;;10.10;9.02;;;9.20;99.90;;;9.47;79.65;101813.50;4976192;28;20434;-67
2024/02/28 02:12:08;;;;;;;12.27;10.20;;;9.20;99.90;;;9.56;80.10;101829.50;4958192;28;20047;-67
2024/02/28 02:14:38;;;;;;;15.50;9.70;;;9.20;99.90;;;9.57;80.29;101826.88;4975690;28;20101;-67
2024/02/28 02:17:06;;;;;;;14.37;9.83;;;9.20;99.90;;;9.60;80.31;101826.91;4975717;28;20120;-68
2024/02/28 02:19:35;;;;;;;13.75;10.45;;;9.30;99.90;;;9.61;80.46;101828.72;4976069;28;20054;-67
2024/02/28 02:22:06;;;;;;;16.77;10.73;;;9.30;99.90;;;9.65;80.60;101829.63;4975622;28;20047;-67
2024/02/28 02:24:36;;;;;;;15.02;10.50;;;9.30;99.90;;;9.65;80.74;101835.81;4975734;28;20047;-67
2024/02/28 02:27:04;;;;;;;13.32;10.07;;;9.30;99.90;;;9.61;80.89;101836.63;4975629;28;20047;-67
2024/02/28 02:29:33;;;;;;;16.52;11.68;;;9.30;99.90;;;9.65;80.83;101840.22;4975527;28;20055;-67
2024/02/28 02:32:01;;;;;;;16.48;10.77;;;9.30;99.90;;;9.63;81.10;101832.28;4975850;28;20047;-67
2024/02/28 02:34:30;;;;;;;15.38;11.02;;;9.30;99.90;;;9.62;81.56;101832.25;4975341;28;20073;-67
2024/02/28 02:37:01;;;;;;;15.80;10.93;;;9.30;99.90;;;9.62;81.56;101824.34;4958071;28;20062;-67
2024/02/28 02:39:29;;;;;;;15.80;11.18;;;9.30;99.90;;;9.62;81.83;101819.91;4975444;28;20412;-67
2024/02/28 02:41:59;;;;;;;15.73;10.57;;;9.30;99.90;;;9.63;81.28;101829.63;4975440;28;20507;-68
2024/02/28 02:44:28;;;;;;;13.95;11.02;;;9.30;99.90;;;9.66;81.67;101829.66;4975893;28;20043;-67
2024/02/28 02:46:56;;;;;;;13.60;11.32;;;9.30;99.90;;;9.67;81.30;101815.59;4975612;28;20564;-67
2024/02/28 02:49:24;;;;;;;15.50;11.10;;;9.30;99.90;;;9.61;81.81;101812.88;4958330;28;20083;-67
2024/02/28 02:51:53;;;;;;;14.18;10.93;;;9.30;99.90;;;9.63;81.89;101813.78;4975325;28;20046;-67
2024/02/28 02:54:21;;;;;;;16.60;11.35;;;9.30;99.90;;;9.56;81.79;101806.59;4956890;28;20428;-67
2024/02/28 02:56:50;;;;;;;15.35;11.13;;;9.30;99.90;;;9.60;82.02;101811.06;4975221;28;20057;-67
2024/02/28 02:59:21;;;;;;;15.05;11.30;;;9.30;99.90;;;9.64;82.28;101815.53;4975301;28;20051;-67
2024/02/28 03:01:51;;;;;;;14.63;11.18;;;9.30;99.90;;;9.66;82.37;101812.91;4975057;28;20050;-67
2024/02/28 03:04:19;;;;;;;17.30;11.15;;;9.30;99.90;;;9.64;82.13;101812.91;4975050;28;20047;-67
2024/02/28 03:06:48;;;;;;;15.48;11.20;;;9.30;99.90;;;9.65;82.23;101812.03;4975327;28;20444;-68
2024/02/28 03:09:16;;;;;;;15.70;10.98;;;9.30;99.90;;;9.65;82.31;101809.41;4975210;28;20046;-67
2024/02/28 03:11:44;;;;;;;13.15;11.45;;;9.30;99.90;;;9.62;82.41;101809.34;4974992;28;20473;-67
2024/02/28 03:14:13;;;;;;;18.08;12.52;;;9.30;99.90;;;9.60;82.48;101805.78;4957213;28;20054;-67
2024/02/28 03:19:32;;;;;;;16.17;11.93;;;9.30;99.90;;;9.67;82.58;101814.69;4959603;23;20066;-66
2024/02/28 03:22:00;;;;;;;19.00;12.53;;;9.30;99.90;;;9.68;82.20;101809.44;4955534;29;20126;-64
2024/02/28 03:24:29;;;;;;;13.73;11.63;;;9.40;99.90;;;9.72;81.99;101816.53;4955754;29;20309;-64
2024/02/28 03:26:57;;;;;;;15.07;11.63;;;9.40;99.90;;;9.70;82.04;101809.44;4938408;29;20047;-64
2024/02/28 03:29:25;;;;;;;19.63;12.18;;;9.40;99.90;;;9.65;82.54;101804.13;4938181;29;20102;-64
2024/02/28 03:31:54;;;;;;;19.10;12.10;;;9.30;99.90;;;9.65;82.49;101805.88;4938320;29;20692;-64
2024/02/28 03:34:22;;;;;;;16.02;12.63;;;9.30;99.90;;;9.62;82.44;101804.06;4955577;29;20473;-65
2024/02/28 03:36:52;;;;;;;19.63;13.35;;;9.30;99.90;;;9.58;82.55;101802.25;4955804;29;20074;-65
2024/02/28 03:39:21;;;;;;;18.48;13.55;;;9.30;99.90;;;9.55;83.00;101799.56;4955509;29;20378;-65
2024/02/28 03:41:49;;;;;;;16.35;12.77;;;9.20;99.90;;;9.51;83.16;101789.81;4955125;29;20079;-66
2024/02/28 03:44:17;;;;;;;19.45;13.75;;;9.20;99.90;;;9.52;83.44;101801.28;4955158;29;20176;-67
2024/02/28 03:46:46;;;;;;;18.00;13.88;;;9.20;99.90;;;9.51;83.55;101794.22;4955092;29;20074;-65
2024/02/28 03:49:14;;;;;;;18.65;14.55;;;9.20;99.90;;;9.48;84.05;101796.81;4955019;29;20079;-66
2024/02/28 03:51:43;;;;;;;22.85;14.98;;;9.20;99.90;;;9.54;84.11;101794.28;4954976;29;20047;-65
2024/02/28 03:54:12;;;;;;;18.77;14.27;;;9.20;99.90;;;9.55;84.61;101794.28;4955008;29;20045;-64
2024/02/28 03:56:41;;;;;;;20.07;14.70;;;9.20;99.90;;;9.57;84.69;101799.59;4955070;29;20047;-65
2024/02/28 03:59:09;;;;;;;20.38;14.90;;;9.20;99.90;;;9.62;84.78;101801.41;4955107;29;20378;-65
2024/02/28 04:01:37;;;;;;;20.50;15.73;;;9.20;99.90;;;9.63;84.82;101811.13;4953636;29;20057;-65
2024/02/28 04:04:07;;;;;;;23.50;14.80;;;9.30;99.90;;;9.64;85.15;101807.63;4954854;29;20043;-65
2024/02/28 04:06:35;;;;;;;18.35;14.82;;;9.30;99.90;;;9.63;85.08;101810.25;4954547;28;20051;-65
2024/02/28 04:09:04;;;;;;;22.20;15.32;;;9.30;99.90;;;9.67;85.36;101807.69;4954815;29;20054;-64
2024/02/28 04:11:34;;;;;;;18.92;16.23;;;9.30;99.90;;;9.65;85.22;101813.78;4954821;29;20102;-64
2024/02/28 04:14:03;;;;;;;;;;;9.40;99.90;;;9.63;85.55;101805.84;4955147;29;20095;-64
2024/02/28 04:16:31;;;;;;;22.02;16.25;;;9.30;99.90;;;9.61;85.31;101802.31;4954782;29;19938;-66
2024/02/28 04:19:00;;;;;;;22.80;16.13;;;9.40;99.90;;;9.68;85.12;101806.78;4954394;29;20070;-68
2024/02/28 04:21:28;;;;;;;21.63;15.80;;;9.40;99.90;;;9.69;85.38;101810.34;4954684;29;20126;-65
2024/02/28 04:23:56;;;;;;;20.90;15.75;;;9.30;99.90;;;9.69;85.40;101813.88;4954602;29;20184;-64
2024/02/28 04:26:25;;;;;;;20.67;15.98;;;9.40;99.90;;;9.74;85.51;101819.19;4954791;29;20039;-64
2024/02/28 04:28:54;;;;;;;20.27;16.50;;;9.40;99.90;;;9.74;85.56;101819.19;4954552;29;20075;-64
2024/02/28 04:31:23;;;;;;;22.93;16.87;;;9.40;99.90;;;9.71;85.44;101828.00;4954598;29;20051;-64
2024/02/28 04:33:51;;;;;;;24.17;16.98;;;9.40;99.90;;;9.69;85.46;101826.19;4954512;29;20138;-64
2024/02/28 04:36:20;;;;;;;24.38;16.20;;;9.40;99.90;;;9.74;85.61;101838.59;4954462;29;20078;-64
2024/02/28 04:38:48;;;;;;;27.55;17.27;;;9.40;99.90;;;9.75;85.94;101834.19;4954534;29;20070;-64
2024/02/28 04:41:17;;;;;;;22.00;16.58;;;9.40;99.90;;;9.80;85.70;101841.31;4954569;29;20055;-64
2024/02/28 04:43:45;;;;;;;24.80;16.85;;;9.50;99.90;;;9.75;85.54;101824.53;4954443;29;20051;-64
2024/02/28 04:46:15;;;;;;;24.38;17.30;;;9.50;99.90;;;9.84;85.88;101837.84;4954498;29;20043;-64
2024/02/28 04:48:43;;;;;;;24.88;17.58;;;9.50;99.90;;;9.82;85.86;101834.31;4954631;29;20050;-64
2024/02/28 04:51:12;;;;;;;24.13;17.23;;;9.50;99.90;;;9.66;85.77;101821.72;4954334;29;20147;-65
2024/02/28 04:53:41;;;;;;;24.17;17.45;;;9.50;99.90;;;9.80;86.08;101836.03;4954222;29;20050;-64
2024/02/28 04:56:09;;;;;;;26.20;17.27;;;9.50;99.90;;;9.82;86.60;101833.41;4954206;29;20047;-64
2024/02/28 04:58:37;;;;;;;21.38;16.70;;;9.50;99.90;;;9.81;86.77;101829.00;4954386;29;20093;-65
2024/02/28 05:01:06;;;;;;;24.20;16.48;;;9.50;99.90;;;9.80;86.77;101825.47;4954332;29;20405;-64
2024/02/28 05:03:36;;;;;;;22.25;16.05;;;9.50;99.90;;;9.77;87.32;101829.81;4954161;29;20039;-64
2024/02/28 05:06:05;;;;;;;23.63;16.73;;;9.40;99.90;;;9.69;87.28;101828.81;4954470;29;20047;-64
2024/02/28 05:08:33;;;;;;;27.48;17.20;;;9.40;99.90;;;9.64;88.18;101826.09;4936961;29;20390;-65
2024/02/28 05:11:02;;;;;;;22.38;17.27;;;9.40;99.90;;;9.72;88.67;101832.38;4954163;29;20141;-64
2024/02/28 05:13:30;;;;;;;22.38;17.38;;;9.40;99.90;;;9.72;88.44;101832.38;4954256;29;20405;-64
2024/02/28 05:15:58;;;;;;;21.02;17.27;;;9.40;99.90;;;9.69;88.45;101847.31;4953988;29;20070;-66
2024/02/28 05:18:29;;;;;;;23.35;17.33;;;9.40;99.90;;;9.65;89.00;101845.50;4955669;28;20055;-64
2024/02/28 05:21:01;;;;;;;24.33;17.60;;;9.40;99.90;;;9.67;89.24;101849.03;4957729;29;20083;-64
2024/02/28 05:23:30;;;;;;;22.15;17.60;;;9.40;99.90;;;9.72;89.07;101855.28;4957778;29;20059;-64
2024/02/28 05:26:03;;;;;;;22.98;17.55;;;9.40;99.90;;;9.71;89.01;101851.75;4957658;29;20051;-64
2024/02/28 05:28:33;;;;;;;24.30;18.48;;;9.40;99.90;;;9.70;89.24;101846.44;4957602;29;20047;-64
2024/02/28 05:31:02;;;;;;;22.52;17.63;;;9.40;99.90;;;9.73;89.39;101850.03;4957644;29;20516;-64
2024/02/28 05:33:31;;;;;;;29.52;18.13;;;9.40;99.90;;;9.74;89.54;101845.63;4957783;29;20416;-68
2024/02/28 05:36:02;;;;;;;26.73;18.92;;;9.40;99.90;;;9.68;89.53;101845.53;4957450;29;20066;-64
2024/02/28 05:38:30;;;;;;;27.08;18.13;;;9.40;99.90;;;9.70;89.84;101839.41;4940208;29;20074;-65
2024/02/28 05:40:58;;;;;;;24.15;18.20;;;9.40;99.90;;;9.68;89.89;101829.66;4957446;29;20070;-65
2024/02/28 05:43:27;;;;;;;26.23;17.98;;;9.40;99.90;;;9.70;90.13;101844.69;4957594;29;20051;-64
2024/02/28 05:45:55;;;;;;;26.95;18.42;;;9.40;99.90;;;9.75;90.43;101840.38;4957382;29;20047;-66
2024/02/28 05:48:24;;;;;;;24.98;18.13;;;9.40;99.90;;;9.75;90.59;101844.75;4957262;29;20050;-64
2024/02/28 05:50:52;;;;;;;30.80;19.55;;;9.40;99.90;;;9.79;90.91;101833.38;4957282;29;20449;-64
2024/02/28 05:53:26;;;;;;;28.25;18.80;;;9.40;99.90;;;9.70;90.81;101809.44;4957277;29;20468;-65
2024/02/28 05:55:56;;;;;;;26.73;17.98;;;9.40;99.90;;;9.79;91.10;101828.09;4957214;29;20462;-64
2024/02/28 05:58:25;;;;;;;25.38;18.80;;;9.40;99.90;;;9.71;91.48;101828.00;4956382;29;20126;-64
2024/02/28 06:00:54;;;;;;;28.45;18.52;;;9.40;99.90;;;9.76;91.75;101833.31;4957154;29;20390;-64
2024/02/28 06:03:23;;;;;;;28.52;18.23;;;9.50;99.90;;;9.77;92.10;101845.69;4956965;29;20053;-67
2024/02/28 06:05:52;;;;;;;31.75;18.98;;;9.40;99.90;;;9.81;91.84;101836.94;4957005;29;20043;-65
2024/02/28 06:08:21;;;;;;;26.70;19.15;;;9.50;99.90;;;9.80;91.81;101832.50;4956973;29;20072;-64
2024/02/28 06:10:52;;;;;;;24.47;18.83;;;9.50;99.90;;;9.82;91.95;101829.03;4956853;29;20055;-63
2024/02/28 06:13:20;;;;;;;28.13;18.35;;;9.50;99.90;;;9.87;92.05;101834.38;4956898;29;20286;-64
2024/02/28 06:15:48;;;;;;;30.45;19.98;;;9.50;99.90;;;9.86;92.47;101836.13;4956699;29;20051;-64
2024/02/28 06:18:17;;;;;;;24.58;18.60;;;9.50;99.90;;;9.86;92.71;101844.06;4956907;29;20055;-63
2024/02/28 06:20:46;;;;;;;27.98;18.23;;;9.60;99.90;;;9.89;92.38;101844.09;4956645;29;20062;-63
2024/02/28 06:23:14;;;;;;;26.35;18.13;;;9.60;99.90;;;9.91;92.65;101845.00;4956674;29;20047;-63
2024/02/28 06:25:56;;;;;;;24.38;18.63;;;9.60;99.90;;;9.96;92.70;101850.34;4956629;29;20039;-65
2024/02/28 06:28:25;;;;;;;25.00;17.40;;;9.60;99.90;;;10.00;92.43;101860.09;4956497;28;20102;-63
2024/02/28 06:30:54;;;;;;;27.15;18.42;;;9.70;99.90;;;10.00;92.37;101863.63;4956396;29;20055;-65
2024/02/28 06:33:22;;;;;;;27.50;19.35;;;9.70;99.90;;;10.05;92.11;101868.97;4956603;29;20051;-63
2024/02/28 06:35:51;;;;;;;21.55;17.27;;;9.70;99.90;;;10.08;91.98;101862.84;4956206;29;20039;-64
2024/02/28 06:38:19;;;;;;;27.63;18.20;;;9.80;99.90;;;10.12;92.00;101880.56;4956182;29;20125;-63
2024/02/28 06:40:47;;;;;;;32.75;18.88;;;9.80;99.90;;;10.12;91.78;101873.53;4956223;29;20047;-62
2024/02/28 06:43:17;;;;;;;34.05;19.52;;;9.80;99.90;;;10.07;91.76;101871.63;4956244;29;20062;-63
2024/02/28 06:45:46;;;;;;;27.63;18.53;;;9.80;99.90;;;10.13;91.72;101874.38;4939068;29;20050;-64
2024/02/28 06:48:14;;;;;;;27.17;18.40;;;9.80;99.90;;;10.11;92.25;101878.75;4956204;29;20796;-64
2024/02/28 06:50:42;;;;;;;30.83;19.25;;;9.80;99.90;;;10.11;92.25;101884.06;4956101;29;20096;-62
2024/02/28 06:53:11;;;;;;;28.73;19.52;;;9.80;99.90;;;10.03;92.45;101882.16;4956050;29;20068;-63
2024/02/28 06:55:42;;;;;;;27.90;19.23;;;9.80;99.90;;;10.01;92.52;101881.25;4956000;29;20355;-63
2024/02/28 06:58:10;;;;;;;23.98;18.92;;;9.70;99.90;;;10.06;93.04;101885.72;4956036;29;20058;-63
2024/02/28 07:00:40;;;;;;;27.10;18.30;;;9.70;99.90;;;10.03;92.71;101876.88;4955959;29;20051;-64
2024/02/28 07:03:09;;;;;;;24.27;18.48;;;9.70;99.90;;;9.92;93.29;101875.84;4938588;29;20051;-63
2024/02/28 07:05:37;;;;;;;32.55;19.70;;;9.70;99.90;;;9.78;94.03;101879.16;4955815;29;20047;-63
2024/02/28 07:08:06;;;;;;;34.22;20.30;;;9.60;99.90;;;9.81;94.29;101879.22;4956017;29;20065;-65
2024/02/28 07:10:34;;;;;;;31.52;19.63;;;9.50;99.90;;;9.79;94.83;101886.22;4955797;29;20053;-64
2024/02/28 07:13:05;;;;;;;32.25;20.35;;;9.50;99.90;;;9.83;95.52;101885.41;4955981;29;20043;-63
2024/02/28 07:15:34;;;;;;;34.97;21.13;;;9.50;99.90;;;9.78;95.73;101889.72;4955613;29;20049;-64
2024/02/28 07:18:04;;;;;;;28.80;21.63;;;9.50;99.90;;;9.77;95.88;101887.94;4955445;29;20386;-64
2024/02/28 07:20:34;;;;;;;32.38;21.73;;;9.50;99.90;;;9.77;96.40;101904.69;4955539;29;20134;-64
2024/02/28 07:23:02;;;;;;;32.95;21.33;;;9.50;99.90;;;9.76;96.75;101894.97;4955569;29;20501;-64
2024/02/28 07:25:32;;;;;;;31.35;21.13;;;9.50;99.90;;;9.82;97.05;101900.38;4955445;29;20106;-66
2024/02/28 07:28:00;;;;;;;29.65;20.85;;;9.50;99.90;;;9.80;97.24;101887.97;4955467;29;20051;-64
2024/02/28 07:30:29;;;;;;;32.92;22.98;;;9.50;99.90;;;9.78;97.31;101893.25;4938106;29;20497;-64
2024/02/28 07:32:58;;;;;;;32.05;21.38;;;9.50;99.90;;;9.79;97.23;101902.06;4955396;29;20082;-64
2024/02/28 07:35:27;;;;;;;29.13;21.23;;;9.50;99.90;;;9.79;97.56;101912.66;4937997;29;20051;-64
2024/02/28 07:37:56;;;;;;;33.67;22.90;;;9.50;99.90;;;9.68;98.22;101898.34;4955346;29;20043;-65
2024/02/28 07:40:24;;;;;;;36.70;23.45;;;9.50;99.90;;;9.60;98.43;101906.16;4954948;28;20318;-64
2024/02/28 07:42:52;;;;;;;38.63;23.90;;;9.40;99.90;;;9.67;99.38;101912.44;4955235;29;20388;-63
2024/02/28 07:45:21;;;;;;;33.70;23.27;;;9.40;99.90;;;9.64;99.39;101917.69;4955122;29;20059;-63
2024/02/28 07:47:49;;;;;;;33.25;22.70;;;9.40;99.90;;;9.59;99.85;101924.63;4955002;29;20134;-62
2024/02/28 07:50:18;;;;;;;35.15;24.10;;;9.40;99.90;;;9.56;100.00;101924.59;4937776;29;20047;-64
2024/02/28 07:52:48;;;;;;;35.47;23.55;;;9.30;99.90;;;9.67;100.00;101929.19;4954329;29;20560;-63
2024/02/28 07:55:18;;;;;;;38.88;24.52;;;9.40;99.90;;;9.60;100.00;101932.56;4936602;29;20058;-64
2024/02/28 07:57:46;;;;;;;41.05;24.20;;;9.40;99.90;;;9.72;100.00;101932.78;4935853;29;20047;-65
2024/02/28 08:00:18;;;;;;;38.85;23.30;;;9.40;99.90;;;9.77;100.00;101941.69;4953109;29;20051;-64
2024/02/28 08:02:47;;;;;;;35.78;23.92;;;9.50;99.90;;;9.84;100.00;101942.66;4953152;29;20039;-61
2024/02/28 08:05:15;;;;;;;32.88;23.73;;;9.50;99.90;;;9.87;99.78;101940.94;4953081;29;20497;-63
2024/02/28 08:07:44;;;;;;;36.75;23.42;;;9.60;99.90;;;9.93;99.64;101938.41;4953069;29;20031;-63
2024/02/28 08:10:14;;;;;;;36.53;23.75;;;9.60;99.90;;;9.91;99.76;101939.25;4935734;29;20131;-63
2024/02/28 08:12:42;;;;;;;36.05;22.27;;;9.60;99.90;;;9.95;99.64;101939.31;4953531;29;20172;-63
2024/02/28 08:15:11;;;;;;;35.83;23.88;;;9.70;99.90;;;9.93;99.57;101948.97;4953008;29;20130;-63
2024/02/28 08:17:40;;;;;;;35.90;23.48;;;9.60;99.90;;;9.92;99.39;101957.78;4953602;29;20086;-63
2024/02/28 08:20:14;;;;;;;31.70;23.55;;;9.70;99.90;;;9.97;99.32;101949.91;4952897;29;20106;-63
2024/02/28 08:22:44;;;;;;;33.70;23.52;;;9.70;99.90;;;9.87;99.45;101954.16;4935226;29;20580;-62
2024/02/28 08:25:16;;;;;;;35.25;23.38;;;9.60;99.90;;;9.92;100.00;101956.88;4952819;29;20118;-62
2024/02/28 08:27:44;;;;;;;35.42;25.25;;;9.70;99.90;;;9.87;99.56;101961.22;4952855;29;20389;-63
2024/02/28 08:30:14;;;;;;;37.63;24.58;;;9.60;99.90;;;9.92;99.70;101955.13;4952798;29;20047;-61
2024/02/28 08:32:43;;;;;;;34.28;23.65;;;9.70;99.90;;;9.93;99.57;101961.28;4952828;29;20055;-64
2024/02/28 08:35:11;;;;;;;33.70;24.20;;;9.70;99.90;;;9.86;100.00;101952.41;4952887;29;20062;-65
2024/02/28 08:37:40;;;;;;;38.35;24.33;;;9.60;99.90;;;9.78;100.00;101961.94;4952517;29;20180;-63
2024/02/28 08:40:09;;;;;;;36.08;24.55;;;9.60;99.90;;;9.71;100.00;101956.53;4952698;29;20142;-65
2024/02/28 08:42:39;;;;;;;38.97;25.73;;;9.50;99.90;;;9.72;100.00;101969.78;4952733;29;20456;-62
2024/02/28 08:45:09;;;;;;;39.85;25.80;;;9.50;99.90;;;9.70;100.00;101967.97;4952939;29;20126;-62
2024/02/28 08:47:37;;;;;;;34.80;24.63;;;9.40;99.90;;;9.72;100.00;101964.50;4952631;29;20084;-64
2024/02/28 08:50:07;;;;;;;36.38;25.90;;;9.50;99.90;;;9.74;100.00;101951.28;4952681;29;20047;-61
2024/02/28 08:52:35;;;;;;;36.70;25.43;;;9.50;99.90;;;9.78;100.00;101958.41;4952755;28;20051;-62
2024/02/28 08:55:04;;;;;;;33.13;25.48;;;9.50;99.90;;;9.91;100.00;101958.63;4956481;29;20059;-61
2024/02/28 08:57:34;;;;;;;36.55;25.98;;;9.60;99.90;;;10.04;100.00;101965.00;4939088;29;20055;-63
2024/02/28 09:00:05;;;;;;;31.88;25.98;;;9.70;99.90;;;10.04;100.00;101968.53;4956201;29;20074;-62
2024/02/28 09:02:33;;;;;;;;;;;9.80;99.90;;;10.04;100.00;101957.94;4956901;29;20070;-63
2024/02/28 09:05:01;;;;;;;36.03;26.52;;;9.80;99.90;;;9.99;100.00;101962.28;4956150;29;19922;-65
2024/02/28 09:07:30;;;;;;;36.00;26.38;;;9.80;99.90;;;9.85;100.00;101966.44;4956204;29;20043;-61
2024/02/28 09:09:58;;;;;;;41.88;27.45;;;9.70;99.90;;;9.95;100.00;101975.41;4955993;29;20070;-63
2024/02/28 09:12:27;;;;;;;39.08;27.83;;;9.70;99.90;;;9.86;100.00;101977.91;4956103;29;20039;-62
2024/02/28 09:14:57;;;;;;;42.10;27.63;;;9.70;99.90;;;9.91;100.00;101966.56;4955975;29;20140;-62
2024/02/28 09:17:27;;;;;;;38.92;27.65;;;9.70;99.90;;;9.78;100.00;101966.34;4955866;29;20079;-62
2024/02/28 09:19:55;;;;;;;39.10;26.83;;;9.60;99.90;;;9.83;100.00;101962.91;4955982;29;20051;-62
2024/02/28 09:22:25;;;;;;;39.58;27.77;;;9.60;99.90;;;9.82;100.00;101966.41;4955961;29;20051;-61
2024/02/28 09:24:53;;;;;;;43.63;28.65;;;9.60;99.90;;;9.70;100.00;101970.59;4955712;29;20058;-62
2024/02/28 09:27:22;;;;;;;42.58;26.83;;;9.60;99.90;;;9.85;100.00;101973.53;4955838;29;20047;-61
2024/02/28 09:29:50;;;;;;;38.00;27.73;;;9.60;99.90;;;9.89;100.00;101975.34;4938420;29;20102;-64
2024/02/28 09:32:18;;;;;;;40.70;27.33;;;9.70;99.90;;;9.96;100.00;101982.50;4954246;29;20142;-62
2024/02/28 09:34:48;;;;;;;40.38;26.70;;;9.70;99.90;;;10.01;100.00;101972.88;4955620;29;20061;-62
2024/02/28 09:37:17;;;;;;;39.88;29.48;;;9.80;99.90;;;10.04;100.00;101984.38;4938131;29;20114;-62
2024/02/28 09:39:46;;;;;;;40.13;28.42;;;9.80;99.90;;;10.16;100.00;101983.75;4955413;29;20055;-62
2024/02/28 09:42:15;;;;;;;45.42;30.55;;;9.90;99.90;;;10.11;100.00;101980.13;4938201;29;20144;-62
2024/02/28 09:44:44;;;;;;;44.22;30.75;;;9.90;99.90;;;10.11;100.00;101980.13;4955130;29;20071;-62
2024/02/28 09:47:14;;;;;;;44.25;29.45;;;9.80;99.90;;;10.20;100.00;101979.38;4955342;29;20512;-62
2024/02/28 09:49:43;;;;;;;45.67;30.97;;;9.90;99.90;;;10.17;100.00;101969.63;4955508;29;20046;-63
2024/02/28 09:52:15;;;;;;;43.70;30.38;;;9.90;99.90;;;10.23;100.00;101966.19;4955526;29;20085;-62
2024/02/28 09:54:43;;;;;;;50.28;33.35;;;9.90;99.90;;;10.15;100.00;101973.13;4955358;29;20051;-62
2024/02/28 09:57:14;;;;;;;48.08;32.17;;;9.90;99.90;;;10.12;100.00;101950.19;4955109;29;20425;-64
2024/02/28 09:59:43;;;;;;;48.33;34.13;;;9.90;99.90;;;10.26;100.00;101960.97;4955242;29;20063;-62
2024/02/28 10:02:24;;;;;;;51.67;33.72;;;9.90;99.90;;;10.18;100.00;101960.81;4953939;29;20065;-64
2024/02/28 10:04:53;;;;;;;50.22;33.67;;;10.00;99.90;;;10.11;100.00;101956.31;4954653;28;20066;-62
2024/02/28 10:07:23;;;;;;;44.85;32.17;;;9.90;99.90;;;10.15;100.00;101957.25;4955130;29;20493;-62
2024/02/28 10:09:51;;;;;;;48.03;32.55;;;9.90;99.90;;;10.27;100.00;101954.78;4955282;29;20521;-62
2024/02/28 10:12:21;;;;;;;49.20;32.40;;;10.00;99.90;;;10.34;100.00;101957.53;4954905;29;20639;-61
2024/02/28 10:14:51;;;;;;;45.38;30.95;;;10.10;99.90;;;10.20;100.00;101916.78;4954994;29;20043;-62
2024/02/28 10:17:19;;;;;;;42.05;29.67;;;10.20;99.90;;;10.33;100.00;101946.94;4954570;29;20441;-61
2024/02/28 10:19:48;;;;;;;43.35;29.00;;;10.20;99.90;;;10.47;100.00;101953.31;4954793;29;20054;-64
2024/02/28 10:22:16;;;;;;;45.58;30.20;;;10.20;99.90;;;10.49;100.00;101957.75;4954694;29;20051;-61